createdAt,value
2022-09-22T00:01:14.381Z,3.88
2022-09-22T00:03:49.348Z,2.97
2022-09-22T00:06:22.040Z,3.80
2022-09-22T00:08:54.045Z,2.85
2022-09-22T00:11:29.325Z,1.45
2022-09-22T00:14:08.403Z,2.33
2022-09-22T00:16:47.720Z,2.83
2022-09-22T00:19:17.408Z,4.53
2022-09-22T00:21:44.429Z,3.03
2022-09-22T00:24:11.375Z,4.97
2022-09-22T00:26:38.477Z,3.92
2022-09-22T00:29:09.528Z,5.18
2022-09-22T00:31:38.617Z,3.65
2022-09-22T00:34:05.999Z,3.90
2022-09-22T00:36:33.095Z,1.90
2022-09-22T00:39:00.129Z,2.35
2022-09-22T00:41:28.271Z,1.48
2022-09-22T00:44:40.710Z,4.88
2022-09-22T00:47:45.895Z,4.80
2022-09-22T00:50:22.383Z,2.35
2022-09-22T00:52:59.942Z,6.05
2022-09-22T00:55:43.267Z,4.05
2022-09-22T00:58:14.409Z,3.33
2022-09-22T01:00:41.217Z,1.75
2022-09-22T01:03:11.772Z,1.25
2022-09-22T01:05:39.578Z,1.23
2022-09-22T01:08:06.586Z,2.28
2022-09-22T01:10:33.618Z,2.85
2022-09-22T01:13:19.171Z,1.55
2022-09-22T01:16:18.269Z,1.20
2022-09-22T01:19:29.769Z,1.67
2022-09-22T01:22:29.422Z,1.38
2022-09-22T01:24:59.389Z,1.30
2022-09-22T01:28:01.540Z,1.33
2022-09-22T01:30:44.510Z,1.90
2022-09-22T01:33:48.345Z,4.00
2022-09-22T01:36:23.292Z,1.70
2022-09-22T01:39:17.497Z,1.48
2022-09-22T01:42:16.139Z,2.97
2022-09-22T01:44:50.350Z,7.75
2022-09-22T01:47:44.899Z,3.92
2022-09-22T01:50:20.788Z,4.18
2022-09-22T01:52:48.146Z,5.20
2022-09-22T01:55:27.640Z,5.78
2022-09-22T01:58:22.887Z,2.80
2022-09-22T02:01:01.005Z,5.03
2022-09-22T02:03:38.459Z,4.97
2022-09-22T02:06:23.374Z,6.60
2022-09-22T02:09:22.075Z,4.68
2022-09-22T02:11:48.973Z,5.05
2022-09-22T02:14:16.243Z,5.65
2022-09-22T02:16:43.011Z,2.95
2022-09-22T02:19:21.563Z,7.32
2022-09-22T02:21:48.784Z,4.35
2022-09-22T02:24:38.050Z,2.28
2022-09-22T02:27:08.087Z,3.67
2022-09-22T02:29:38.071Z,3.47
2022-09-22T02:32:08.014Z,5.93
2022-09-22T02:34:34.700Z,7.18
2022-09-22T02:37:21.996Z,7.18
2022-09-22T02:39:56.984Z,6.30
2022-09-22T02:42:30.857Z,7.25
2022-09-22T02:45:15.845Z,3.65
2022-09-22T02:47:48.126Z,9.50
2022-09-22T02:50:17.817Z,5.55
2022-09-22T02:52:44.582Z,4.43
2022-09-22T02:55:12.642Z,20.58
2022-09-22T02:57:39.334Z,3.00
2022-09-22T03:00:06.949Z,7.00
2022-09-22T03:02:33.724Z,5.03
2022-09-22T03:05:00.477Z,16.15
2022-09-22T03:07:27.394Z,3.00
2022-09-22T03:09:54.160Z,3.65
2022-09-22T03:12:20.891Z,27.23
2022-09-22T03:14:47.764Z,11.80
2022-09-22T03:17:14.732Z,6.95
2022-09-22T03:19:41.386Z,3.47
2022-09-22T03:22:08.339Z,7.68
2022-09-22T03:24:35.134Z,7.70
2022-09-22T03:27:01.843Z,15.38
2022-09-22T03:29:28.628Z,20.27
2022-09-22T03:31:55.243Z,6.32
2022-09-22T03:34:22.060Z,29.45
2022-09-22T03:36:48.817Z,11.25
2022-09-22T03:39:15.580Z,9.18
2022-09-22T03:41:42.408Z,24.98
2022-09-22T03:44:09.399Z,35.30
2022-09-22T03:46:36.267Z,30.42
2022-09-22T03:49:04.083Z,19.23
2022-09-22T03:51:31.219Z,31.13
2022-09-22T03:53:58.037Z,36.25
2022-09-22T03:56:24.876Z,30.58
2022-09-22T03:58:51.552Z,41.10
2022-09-22T04:01:18.534Z,9.27
2022-09-22T04:03:45.445Z,18.42
2022-09-22T04:06:12.211Z,25.50
2022-09-22T04:08:39.117Z,7.50
2022-09-22T04:11:06.880Z,10.95
2022-09-22T04:13:36.756Z,29.70
2022-09-22T04:16:05.527Z,18.40
2022-09-22T04:18:32.750Z,10.60
2022-09-22T04:20:59.986Z,22.65
2022-09-22T04:23:27.392Z,7.05
2022-09-22T04:25:54.376Z,35.05
2022-09-22T04:28:21.571Z,11.93
2022-09-22T04:30:48.360Z,20.73
2022-09-22T04:33:15.268Z,37.22
2022-09-22T04:35:42.008Z,43.05
2022-09-22T04:38:10.405Z,40.35
2022-09-22T04:40:37.875Z,23.75
2022-09-22T04:43:04.699Z,42.33
2022-09-22T04:45:33.972Z,40.70
2022-09-22T04:48:02.982Z,32.20
2022-09-22T04:50:29.800Z,19.30
2022-09-22T04:52:57.316Z,32.75
2022-09-22T04:55:25.187Z,17.23
2022-09-22T04:57:53.912Z,8.23
2022-09-22T05:00:22.090Z,5.93
2022-09-22T05:02:49.037Z,11.00
2022-09-22T05:05:16.130Z,17.17
2022-09-22T05:07:45.763Z,31.40
2022-09-22T05:10:13.699Z,25.33
2022-09-22T05:12:41.486Z,18.15
2022-09-22T05:15:10.054Z,11.50
2022-09-22T05:17:36.901Z,19.58
2022-09-22T05:20:07.463Z,42.55
2022-09-22T05:22:39.125Z,15.25
2022-09-22T05:25:08.740Z,23.55
2022-09-22T05:27:35.707Z,14.70
2022-09-22T05:30:02.704Z,15.05
2022-09-22T05:32:29.468Z,11.35
2022-09-22T05:34:56.100Z,19.42
2022-09-22T05:37:22.872Z,22.75
2022-09-22T05:39:49.652Z,18.85
2022-09-22T05:42:16.315Z,7.07
2022-09-22T05:44:42.944Z,5.13
2022-09-22T05:47:09.560Z,19.02
2022-09-22T05:49:36.373Z,5.40
2022-09-22T05:52:03.478Z,20.33
2022-09-22T05:54:30.116Z,31.80
2022-09-22T05:56:56.967Z,9.13
2022-09-22T05:59:23.634Z,8.05
2022-09-22T06:01:50.412Z,20.63
2022-09-22T06:04:17.350Z,21.73
2022-09-22T06:06:44.030Z,24.58
2022-09-22T06:09:10.759Z,19.00
2022-09-22T06:11:37.516Z,24.45
2022-09-22T06:14:04.259Z,30.70
2022-09-22T06:16:32.003Z,6.00
2022-09-22T06:18:59.078Z,30.60
2022-09-22T06:21:26.161Z,34.28
2022-09-22T06:23:52.994Z,9.00
2022-09-22T06:26:19.785Z,50.58
2022-09-22T06:28:47.350Z,13.52
2022-09-22T06:31:15.432Z,18.48
2022-09-22T06:33:48.413Z,25.58
2022-09-22T06:36:31.416Z,26.63
2022-09-22T06:38:59.041Z,46.40
2022-09-22T06:41:26.791Z,38.83
2022-09-22T06:43:56.220Z,104.85
2022-09-22T06:46:24.865Z,43.88
2022-09-22T06:48:54.316Z,41.05
2022-09-22T06:51:21.151Z,30.35
2022-09-22T06:53:51.820Z,42.08
2022-09-22T06:56:20.511Z,30.02
2022-09-22T06:59:08.958Z,29.55
2022-09-22T07:01:34.237Z,38.85
2022-09-22T07:04:01.424Z,15.23
2022-09-22T07:06:28.787Z,114.50
2022-09-22T07:08:55.437Z,27.77
2022-09-22T07:11:23.852Z,76.15
2022-09-22T07:13:53.621Z,74.20
2022-09-22T07:16:22.598Z,19.15
2022-09-22T07:18:51.550Z,54.92
2022-09-22T07:21:24.275Z,14.90
2022-09-22T07:23:53.414Z,11.85
2022-09-22T07:26:24.038Z,9.30
2022-09-22T07:28:53.507Z,17.45
2022-09-22T07:31:23.960Z,27.17
2022-09-22T07:33:54.952Z,26.27
2022-09-22T07:36:23.398Z,24.20
2022-09-22T07:38:51.882Z,14.35
2022-09-22T07:41:24.444Z,11.27
2022-09-22T07:43:53.508Z,9.20
2022-09-22T07:46:20.645Z,10.70
2022-09-22T07:48:48.095Z,9.80
2022-09-22T07:51:19.443Z,9.35
2022-09-22T07:54:07.320Z,12.48
2022-09-22T07:56:40.392Z,9.23
2022-09-22T07:59:10.939Z,8.73
2022-09-22T08:01:47.790Z,10.48
2022-09-22T08:04:16.934Z,8.80
2022-09-22T08:06:44.457Z,6.13
2022-09-22T08:09:12.028Z,5.03
2022-09-22T08:11:39.163Z,4.70
2022-09-22T08:14:08.710Z,5.07
2022-09-22T08:16:39.171Z,6.70
2022-09-22T08:19:12.721Z,5.65
2022-09-22T08:21:48.370Z,6.57
2022-09-22T08:24:21.600Z,18.40
2022-09-22T08:26:50.697Z,5.50
2022-09-22T08:29:17.492Z,4.97
2022-09-22T08:31:47.782Z,5.60
2022-09-22T08:34:16.699Z,4.50
2022-09-22T08:36:47.502Z,4.57
2022-09-22T08:39:18.548Z,4.28
2022-09-22T08:42:19.388Z,4.43
2022-09-22T08:44:54.474Z,4.57
2022-09-22T08:47:45.434Z,4.63
2022-09-22T08:50:51.763Z,4.47
2022-09-22T08:53:23.100Z,4.35
2022-09-22T08:56:03.243Z,4.47
2022-09-22T08:58:45.435Z,4.30
2022-09-22T09:01:20.670Z,7.15
2022-09-22T09:04:22.328Z,3.80
2022-09-22T09:07:08.243Z,3.83
2022-09-22T09:10:05.318Z,4.03
2022-09-22T09:12:58.335Z,4.90
2022-09-22T09:15:37.674Z,3.72
2022-09-22T09:18:13.699Z,3.25
2022-09-22T09:20:45.154Z,3.58
2022-09-22T09:26:18.884Z,3.15
2022-09-22T09:28:50.537Z,5.05
2022-09-22T09:31:21.454Z,3.90
2022-09-22T09:33:59.518Z,4.25
2022-09-22T09:36:31.395Z,3.20
2022-09-22T09:38:59.051Z,4.32
2022-09-22T09:41:34.395Z,2.20
2022-09-22T09:44:02.080Z,3.70
2022-09-22T09:46:50.936Z,2.38
2022-09-22T09:49:20.058Z,4.70
2022-09-22T09:51:50.728Z,5.38
2022-09-22T09:54:18.995Z,2.80
2022-09-22T09:57:21.398Z,3.35
2022-09-22T10:00:32.661Z,3.10
2022-09-22T10:03:25.540Z,2.33
2022-09-22T10:06:04.733Z,3.08
2022-09-22T10:08:36.772Z,1.75
2022-09-22T10:11:04.627Z,7.28
2022-09-22T10:13:34.039Z,2.70
2022-09-22T10:16:24.615Z,3.17
2022-09-22T10:19:17.420Z,1.77
2022-09-22T10:21:44.059Z,2.25
2022-09-22T10:24:29.930Z,3.65
2022-09-22T10:26:57.480Z,3.20
2022-09-22T10:29:25.292Z,1.75
2022-09-22T10:32:16.574Z,1.95
2022-09-22T10:34:51.338Z,1.20
2022-09-22T10:37:21.209Z,3.15
2022-09-22T10:39:50.700Z,1.25
2022-09-22T10:42:35.818Z,3.28
2022-09-22T10:45:09.114Z,2.92
2022-09-22T10:47:51.696Z,2.83
2022-09-22T10:50:55.807Z,2.55
2022-09-22T10:53:47.110Z,2.58
2022-09-22T10:56:26.030Z,1.33
2022-09-22T10:59:05.960Z,2.05
2022-09-22T11:01:48.979Z,2.05
2022-09-22T11:04:43.107Z,2.17
2022-09-22T11:07:59.337Z,1.83
2022-09-22T11:11:17.074Z,3.80
2022-09-22T11:13:58.567Z,2.22
2022-09-22T11:16:37.805Z,4.72
2022-09-22T11:19:33.007Z,2.70
2022-09-22T11:22:34.707Z,1.58
2022-09-22T11:25:33.710Z,3.08
2022-09-22T11:28:38.991Z,1.58
2022-09-22T11:34:06.437Z,1.88
2022-09-22T11:36:51.452Z,3.08
2022-09-22T11:39:21.227Z,2.72
2022-09-22T11:42:02.214Z,2.25
2022-09-22T11:44:33.635Z,1.00
2022-09-22T11:47:29.855Z,1.90
2022-09-22T11:50:26.920Z,2.05
2022-09-22T11:53:05.028Z,1.90
2022-09-22T11:56:06.698Z,1.13
2022-09-22T11:58:34.386Z,2.63
2022-09-22T12:01:17.850Z,1.60
2022-09-22T12:03:52.623Z,1.27
2022-09-22T12:06:26.691Z,1.35
2022-09-22T12:09:06.159Z,1.73
2022-09-22T12:11:36.007Z,2.38
2022-09-22T12:14:03.832Z,2.53
2022-09-22T12:16:43.822Z,2.42
2022-09-22T12:20:08.459Z,2.58
2022-09-22T12:22:58.390Z,1.02
2022-09-22T12:25:48.620Z,1.23
2022-09-22T12:28:18.674Z,1.40
2022-09-22T12:30:56.926Z,1.70
2022-09-22T12:33:23.843Z,1.40
2022-09-22T12:35:55.218Z,2.35
2022-09-22T12:38:22.923Z,2.72
2022-09-22T12:40:51.984Z,1.38
2022-09-22T12:43:21.905Z,2.35
2022-09-22T12:45:49.569Z,1.20
2022-09-22T12:48:35.123Z,2.03
2022-09-22T12:51:29.423Z,2.72
2022-09-22T12:54:33.692Z,2.45
2022-09-22T12:57:21.629Z,2.13
2022-09-22T13:00:11.115Z,0.70
2022-09-22T13:02:43.312Z,1.35
2022-09-22T13:05:25.035Z,4.43
2022-09-22T13:08:01.854Z,3.95
2022-09-22T13:10:28.858Z,3.00
2022-09-22T13:13:01.833Z,1.40
2022-09-22T13:15:31.405Z,2.47
2022-09-22T13:17:59.069Z,0.90
2022-09-22T13:20:32.012Z,1.95
2022-09-22T13:23:06.057Z,1.77
2022-09-22T13:25:33.004Z,1.52
2022-09-22T13:28:11.374Z,1.35
2022-09-22T13:30:40.466Z,1.23
2022-09-22T13:33:18.614Z,1.38
2022-09-22T13:35:45.765Z,1.58
2022-09-22T13:38:13.837Z,1.33
2022-09-22T13:40:46.232Z,2.03
2022-09-22T13:43:25.805Z,2.13
2022-09-22T13:45:52.843Z,1.00
2022-09-22T13:48:20.463Z,6.10
2022-09-22T13:50:56.975Z,1.73
2022-09-22T13:53:23.847Z,0.50
2022-09-22T13:55:52.094Z,2.28
2022-09-22T13:58:24.441Z,1.02
2022-09-22T14:01:13.046Z,1.65
2022-09-22T14:03:40.422Z,0.70
2022-09-22T14:06:15.803Z,3.67
2022-09-22T14:08:44.232Z,1.30
2022-09-22T14:11:18.631Z,0.85
2022-09-22T14:13:55.090Z,2.80
2022-09-22T14:16:39.291Z,2.53
2022-09-22T14:19:14.742Z,3.60
2022-09-22T14:21:58.570Z,3.08
2022-09-22T14:24:26.573Z,2.67
2022-09-22T14:26:57.988Z,1.52
2022-09-22T14:29:30.427Z,0.70
2022-09-22T14:32:11.870Z,1.27
2022-09-22T14:34:39.609Z,0.98
2022-09-22T14:37:24.976Z,1.15
2022-09-22T14:39:53.716Z,4.63
2022-09-22T14:42:28.579Z,2.38
2022-09-22T14:45:21.153Z,2.08
2022-09-22T14:48:15.673Z,2.00
2022-09-22T14:50:45.658Z,3.75
2022-09-22T14:53:29.240Z,3.25
2022-09-22T14:56:07.619Z,2.03
2022-09-22T14:58:40.430Z,1.63
2022-09-22T15:01:52.581Z,2.35
2022-09-22T15:04:28.351Z,0.85
2022-09-22T15:06:56.944Z,2.25
2022-09-22T15:09:37.862Z,0.80
2022-09-22T15:12:05.149Z,2.67
2022-09-22T15:14:50.449Z,0.85
2022-09-22T15:17:55.886Z,4.10
2022-09-22T15:20:26.676Z,1.92
2022-09-22T15:22:56.228Z,1.20
2022-09-22T15:25:23.519Z,1.40
2022-09-22T15:27:56.169Z,1.60
2022-09-22T15:30:22.961Z,3.47
2022-09-22T15:32:49.843Z,1.65
2022-09-22T15:35:17.956Z,2.63
2022-09-22T15:37:50.325Z,2.72
2022-09-22T15:40:21.430Z,1.70
2022-09-22T15:43:09.090Z,2.80
2022-09-22T15:45:37.464Z,1.25
2022-09-22T15:48:04.375Z,1.00
2022-09-22T15:50:31.135Z,1.95
2022-09-22T15:52:57.885Z,0.57
2022-09-22T15:55:24.679Z,2.88
2022-09-22T15:57:55.021Z,1.70
2022-09-22T16:00:27.432Z,0.73
2022-09-22T16:02:54.820Z,0.68
2022-09-22T16:05:21.679Z,1.48
2022-09-22T16:07:52.652Z,2.58
2022-09-22T16:10:23.809Z,1.33
2022-09-22T16:12:50.833Z,1.23
2022-09-22T16:15:17.815Z,1.65
2022-09-22T16:17:45.925Z,2.58
2022-09-22T16:20:17.368Z,5.32
2022-09-22T16:22:45.606Z,1.48
2022-09-22T16:25:12.932Z,2.08
2022-09-22T16:27:39.996Z,0.60
2022-09-22T16:30:07.739Z,0.52
2022-09-22T16:32:36.411Z,1.88
2022-09-22T16:35:04.006Z,1.23
2022-09-22T16:37:30.825Z,0.73
2022-09-22T16:39:57.500Z,0.60
2022-09-22T16:42:24.186Z,2.67
2022-09-22T16:44:51.069Z,1.08
2022-09-22T16:47:22.967Z,1.98
2022-09-22T16:49:51.788Z,1.55
2022-09-22T16:52:19.467Z,4.32
2022-09-22T16:54:46.427Z,5.05
2022-09-22T16:57:13.501Z,9.00
2022-09-22T16:59:40.272Z,6.95
2022-09-22T17:02:07.320Z,6.50
2022-09-22T17:04:34.065Z,4.55
2022-09-22T17:07:00.797Z,7.47
2022-09-22T17:09:27.809Z,7.10
2022-09-22T17:11:54.624Z,5.07
2022-09-22T17:14:22.304Z,9.85
2022-09-22T17:16:52.394Z,5.75
2022-09-22T17:19:24.349Z,6.72
2022-09-22T17:21:53.014Z,7.22
2022-09-22T17:24:19.987Z,7.35
2022-09-22T17:26:49.150Z,7.30
2022-09-22T17:29:25.366Z,5.57
2022-09-22T17:31:57.769Z,2.90
2022-09-22T17:34:26.051Z,2.78
2022-09-22T17:36:55.656Z,3.53
2022-09-22T17:39:24.209Z,2.35
2022-09-22T17:41:51.195Z,2.88
2022-09-22T17:44:21.115Z,2.40
2022-09-22T17:47:07.958Z,1.23
2022-09-22T17:49:53.245Z,2.75
2022-09-22T17:52:52.258Z,2.03
2022-09-22T17:55:25.674Z,0.80
2022-09-22T17:57:53.019Z,1.40
2022-09-22T18:00:21.397Z,1.50
2022-09-22T18:02:49.689Z,2.55
2022-09-22T18:05:19.960Z,2.88
2022-09-22T18:07:49.483Z,3.00
2022-09-22T18:10:19.348Z,1.58
2022-09-22T18:12:45.977Z,2.03
2022-09-22T18:15:13.566Z,1.67
2022-09-22T18:17:42.244Z,2.08
2022-09-22T18:20:14.481Z,1.40
2022-09-22T18:22:42.042Z,1.77
2022-09-22T18:25:11.078Z,1.77
2022-09-22T18:27:38.482Z,2.63
2022-09-22T18:30:05.788Z,3.40
2022-09-22T18:32:33.487Z,8.48
2022-09-22T18:35:00.211Z,8.77
2022-09-22T18:37:27.177Z,8.27
2022-09-22T18:39:54.394Z,7.70
2022-09-22T18:42:24.431Z,3.88
2022-09-22T18:44:52.178Z,3.13
2022-09-22T18:47:21.315Z,5.95
2022-09-22T18:49:51.972Z,2.53
2022-09-22T18:52:29.068Z,3.05
2022-09-22T18:54:56.231Z,2.95
2022-09-22T18:57:25.888Z,2.75
2022-09-22T18:59:54.194Z,1.38
2022-09-22T19:02:23.065Z,3.20
2022-09-22T19:04:51.851Z,3.85
2022-09-22T19:07:41.591Z,3.60
2022-09-22T19:10:13.834Z,3.75
2022-09-22T19:12:40.846Z,5.55
2022-09-22T19:15:13.030Z,4.93
2022-09-22T19:17:42.866Z,4.45
2022-09-22T19:20:12.515Z,4.32
2022-09-22T19:22:39.925Z,4.05
2022-09-22T19:25:07.238Z,4.88
2022-09-22T19:27:35.013Z,9.07
2022-09-22T19:30:02.298Z,7.68
2022-09-22T19:32:28.913Z,10.27
2022-09-22T19:34:56.629Z,8.80
2022-09-22T19:37:25.055Z,8.15
2022-09-22T19:39:51.746Z,6.57
2022-09-22T19:42:19.171Z,7.60
2022-09-22T19:44:45.798Z,10.50
2022-09-22T19:47:12.603Z,9.80
2022-09-22T19:49:41.005Z,6.68
2022-09-22T19:52:09.576Z,6.53
2022-09-22T19:54:36.351Z,7.80
2022-09-22T19:57:03.148Z,6.75
2022-09-22T19:59:29.897Z,5.85
2022-09-22T20:01:56.723Z,6.40
2022-09-22T20:04:23.756Z,6.25
2022-09-22T20:06:50.639Z,6.72
2022-09-22T20:09:17.603Z,6.43
2022-09-22T20:11:47.007Z,11.60
2022-09-22T20:14:20.628Z,13.48
2022-09-22T20:17:08.289Z,14.27
2022-09-22T20:19:38.587Z,11.35
2022-09-22T20:22:27.772Z,12.13
2022-09-22T20:24:57.800Z,14.20
2022-09-22T20:27:26.615Z,11.88
2022-09-22T20:29:57.104Z,13.85
2022-09-22T20:32:25.257Z,14.80
2022-09-22T20:34:54.274Z,11.60
2022-09-22T20:37:23.140Z,11.65
2022-09-22T20:39:50.405Z,14.30
2022-09-22T20:42:17.709Z,10.77
2022-09-22T20:44:44.491Z,6.82
2022-09-22T20:47:15.033Z,6.30
2022-09-22T20:49:42.338Z,6.68
2022-09-22T20:52:14.682Z,7.47
2022-09-22T20:54:42.270Z,5.18
2022-09-22T20:57:09.522Z,4.40
2022-09-22T20:59:36.496Z,5.82
2022-09-22T21:02:03.252Z,6.38
2022-09-22T21:04:30.688Z,4.47
2022-09-22T21:06:58.303Z,7.70
2022-09-22T21:09:43.798Z,4.28
2022-09-22T21:12:10.858Z,5.05
2022-09-22T21:14:37.554Z,5.03
2022-09-22T21:17:06.709Z,4.43
2022-09-22T21:19:34.900Z,5.80
2022-09-22T21:22:01.593Z,5.97
2022-09-22T21:24:28.849Z,5.53
2022-09-22T21:27:01.928Z,7.82
2022-09-22T21:29:29.935Z,4.72
2022-09-22T21:31:57.993Z,5.13
2022-09-22T21:34:25.037Z,6.20
2022-09-22T21:36:51.703Z,5.00
2022-09-22T21:39:18.505Z,3.83
2022-09-22T21:41:45.182Z,6.45
2022-09-22T21:44:11.842Z,10.55
2022-09-22T21:46:41.082Z,8.20
2022-09-22T21:49:08.825Z,7.95
2022-09-22T21:51:41.530Z,5.68
2022-09-22T21:54:13.028Z,5.05
2022-09-22T21:56:40.088Z,4.15
2022-09-22T21:59:06.894Z,2.20
2022-09-22T22:01:36.097Z,3.90
2022-09-22T22:04:03.588Z,3.13
2022-09-22T22:06:32.754Z,4.63
2022-09-22T22:09:04.327Z,6.10
2022-09-22T22:11:39.634Z,3.35
2022-09-22T22:14:08.682Z,4.97
2022-09-22T22:16:40.418Z,6.32
2022-09-22T22:19:09.119Z,3.15
2022-09-22T22:21:36.619Z,4.63
2022-09-22T22:24:24.783Z,2.15
2022-09-22T22:26:57.351Z,2.35
2022-09-22T22:29:27.519Z,5.35
2022-09-22T22:31:54.543Z,4.95
2022-09-22T22:34:25.752Z,3.20
2022-09-22T22:36:53.091Z,3.08
2022-09-22T22:39:20.054Z,3.63
2022-09-22T22:41:48.876Z,2.85
2022-09-22T22:44:18.405Z,4.72
2022-09-22T22:46:46.241Z,3.50
2022-09-22T22:49:13.250Z,5.13
2022-09-22T22:51:43.455Z,6.68
2022-09-22T22:54:11.980Z,4.50
2022-09-22T22:56:42.048Z,2.33
2022-09-22T22:59:09.869Z,4.57
2022-09-22T23:01:36.950Z,5.10
2022-09-22T23:04:06.290Z,4.57
2022-09-22T23:06:42.261Z,4.35
2022-09-22T23:09:12.185Z,3.95
2022-09-22T23:11:40.329Z,1.83
2022-09-22T23:14:09.543Z,4.40
2022-09-22T23:16:41.906Z,4.55
2022-09-22T23:19:11.964Z,3.10
2022-09-22T23:21:38.748Z,3.35
2022-09-22T23:24:06.142Z,2.22
2022-09-22T23:26:33.257Z,4.32
2022-09-22T23:29:00.199Z,7.43
2022-09-22T23:31:28.013Z,2.63
2022-09-22T23:33:54.804Z,6.82
2022-09-22T23:36:24.428Z,4.25
2022-09-22T23:38:55.513Z,5.40
2022-09-22T23:41:22.476Z,4.93
2022-09-22T23:43:51.291Z,3.90
2022-09-22T23:46:18.335Z,3.58
2022-09-22T23:48:45.083Z,4.80
2022-09-22T23:51:11.732Z,3.65
2022-09-22T23:53:38.544Z,5.45
2022-09-22T23:56:06.606Z,4.15
2022-09-22T23:58:34.195Z,2.58
